createdAt,value
2023-05-22T00:02:51.206Z,20.20
2023-05-22T00:07:07.470Z,17.50
2023-05-22T00:11:19.899Z,18.50
2023-05-22T00:15:33.626Z,18.02
2023-05-22T00:19:46.669Z,18.92
2023-05-22T00:23:59.053Z,18.35
2023-05-22T00:28:12.431Z,17.50
2023-05-22T00:32:29.053Z,15.30
2023-05-22T00:36:41.372Z,15.60
2023-05-22T00:40:54.173Z,11.18
2023-05-22T00:45:07.626Z,9.80
2023-05-22T00:49:19.942Z,10.40
2023-05-22T00:53:32.487Z,9.15
2023-05-22T00:57:46.341Z,9.43
2023-05-22T01:01:59.268Z,7.18
2023-05-22T01:06:18.314Z,7.93
2023-05-22T01:10:31.254Z,7.13
2023-05-22T01:14:49.427Z,6.97
2023-05-22T01:19:22.931Z,7.18
2023-05-22T01:24:16.385Z,6.47
2023-05-22T01:28:50.335Z,6.30
2023-05-22T01:33:05.041Z,6.57
2023-05-22T01:37:20.319Z,6.78
2023-05-22T01:41:36.497Z,6.28
2023-05-22T01:45:49.665Z,6.45
2023-05-22T01:50:02.509Z,7.90
2023-05-22T01:54:39.489Z,7.05
2023-05-22T01:59:23.115Z,6.65
2023-05-22T02:03:37.890Z,6.95
2023-05-22T02:07:51.239Z,6.50
2023-05-22T02:12:04.210Z,6.25
2023-05-22T02:16:19.689Z,8.85
2023-05-22T02:20:32.183Z,9.10
2023-05-22T02:24:47.818Z,8.32
2023-05-22T02:29:02.507Z,7.63
2023-05-22T02:33:18.393Z,5.65
2023-05-22T02:37:31.281Z,5.03
2023-05-22T02:41:43.741Z,4.82
2023-05-22T02:45:56.232Z,4.65
2023-05-22T02:50:09.036Z,4.68
2023-05-22T02:54:22.105Z,5.22
2023-05-22T02:58:35.730Z,4.78
2023-05-22T03:02:48.324Z,4.85
2023-05-22T03:07:02.061Z,5.22
2023-05-22T03:11:14.478Z,5.25
2023-05-22T03:15:26.903Z,4.30
2023-05-22T03:19:43.725Z,4.38
2023-05-22T03:23:56.605Z,4.38
2023-05-22T03:28:09.043Z,4.40
2023-05-22T03:32:25.053Z,4.53
2023-05-22T03:36:37.412Z,4.80
2023-05-22T03:40:50.694Z,4.20
2023-05-22T03:45:03.376Z,4.25
2023-05-22T03:49:16.466Z,4.40
2023-05-22T03:53:29.909Z,4.30
2023-05-22T03:57:42.307Z,4.47
2023-05-22T04:01:54.772Z,4.20
2023-05-22T04:06:07.858Z,4.30
2023-05-22T04:10:22.901Z,4.20
2023-05-22T04:14:35.297Z,4.30
2023-05-22T04:18:47.854Z,4.03
2023-05-22T04:23:00.310Z,4.30
2023-05-22T04:27:13.425Z,4.00
2023-05-22T04:31:26.359Z,4.03
2023-05-22T04:35:40.523Z,4.07
2023-05-22T04:39:58.568Z,4.15
2023-05-22T04:44:11.212Z,3.92
2023-05-22T04:48:23.565Z,4.15
2023-05-22T04:52:36.473Z,3.85
2023-05-22T04:56:48.971Z,4.45
2023-05-22T05:01:01.729Z,4.35
2023-05-22T05:05:14.392Z,4.03
2023-05-22T05:09:26.887Z,3.80
2023-05-22T05:13:40.183Z,3.40
2023-05-22T05:17:52.682Z,3.90
2023-05-22T05:22:05.426Z,3.72
2023-05-22T05:26:17.976Z,4.10
2023-05-22T05:30:32.165Z,4.30
2023-05-22T05:35:13.871Z,3.72
2023-05-22T05:39:30.716Z,3.60
2023-05-22T05:43:45.449Z,3.55
2023-05-22T05:47:57.921Z,3.88
2023-05-22T05:52:10.574Z,4.47
2023-05-22T05:56:23.117Z,4.20
2023-05-22T06:00:36.823Z,4.35
2023-05-22T06:04:49.605Z,4.72
2023-05-22T06:09:06.609Z,4.78
2023-05-22T06:13:32.021Z,4.28
2023-05-22T06:17:46.831Z,4.20
2023-05-22T06:21:59.468Z,4.30
2023-05-22T06:26:11.986Z,4.55
2023-05-22T06:30:39.096Z,4.63
2023-05-22T06:34:57.210Z,4.97
2023-05-22T06:39:10.570Z,4.68
2023-05-22T06:43:43.114Z,4.85
2023-05-22T06:47:58.677Z,4.63
2023-05-22T06:52:11.603Z,5.07
2023-05-22T06:56:25.046Z,5.43
2023-05-22T07:01:04.001Z,5.97
2023-05-22T07:05:23.056Z,4.45
2023-05-22T07:09:41.166Z,6.05
2023-05-22T07:13:53.638Z,7.60
2023-05-22T07:18:06.769Z,7.90
2023-05-22T07:22:19.906Z,7.18
2023-05-22T07:26:34.194Z,10.98
2023-05-22T07:30:51.682Z,19.30
2023-05-22T07:35:05.099Z,7.07
2023-05-22T07:39:18.991Z,5.85
2023-05-22T07:43:31.816Z,4.90
2023-05-22T07:47:45.525Z,4.70
2023-05-22T07:51:58.494Z,5.00
2023-05-22T07:56:12.399Z,4.45
2023-05-22T08:00:27.590Z,4.07
2023-05-22T08:04:40.211Z,4.70
2023-05-22T08:08:55.308Z,3.53
2023-05-22T08:13:07.830Z,4.07
2023-05-22T08:17:20.497Z,4.28
2023-05-22T08:21:34.932Z,4.45
2023-05-22T08:25:47.263Z,4.65
2023-05-22T08:29:59.627Z,4.47
2023-05-22T08:34:12.115Z,3.85
2023-05-22T08:38:24.539Z,5.03
2023-05-22T08:42:37.290Z,3.65
2023-05-22T08:46:51.842Z,3.50
2023-05-22T08:51:06.198Z,3.45
2023-05-22T08:55:21.283Z,4.13
2023-05-22T08:59:42.271Z,3.30
2023-05-22T09:03:56.357Z,3.53
2023-05-22T09:08:19.953Z,3.35
2023-05-22T09:12:33.683Z,3.33
2023-05-22T09:16:47.703Z,3.53
2023-05-22T09:21:00.800Z,3.08
2023-05-22T09:25:19.089Z,3.53
2023-05-22T09:29:31.814Z,3.05
2023-05-22T09:33:44.809Z,3.53
2023-05-22T09:37:58.013Z,3.95
2023-05-22T09:42:15.232Z,3.75
2023-05-22T09:46:27.699Z,3.40
2023-05-22T09:50:40.520Z,4.15
2023-05-22T09:54:56.131Z,3.80
2023-05-22T09:59:10.078Z,3.65
2023-05-22T10:03:24.685Z,3.83
2023-05-22T10:07:42.677Z,3.70
2023-05-22T10:11:58.983Z,3.97
2023-05-22T10:16:12.476Z,4.97
2023-05-22T10:20:29.638Z,4.80
2023-05-22T10:24:42.853Z,4.65
2023-05-22T10:29:18.218Z,5.18
2023-05-22T10:33:49.082Z,4.03
2023-05-22T10:38:23.097Z,4.28
2023-05-22T10:42:38.229Z,4.13
2023-05-22T10:46:50.988Z,3.83
2023-05-22T10:51:23.203Z,3.72
2023-05-22T10:55:57.143Z,3.20
2023-05-22T11:00:19.567Z,4.05
2023-05-22T11:04:36.481Z,3.72
2023-05-22T11:08:50.676Z,3.97
2023-05-22T11:13:11.615Z,3.92
2023-05-22T11:17:29.261Z,3.40
2023-05-22T11:21:46.153Z,3.10
2023-05-22T11:26:18.120Z,3.30
2023-05-22T11:30:33.315Z,3.50
2023-05-22T11:34:47.740Z,3.53
2023-05-22T11:39:00.540Z,3.22
2023-05-22T11:43:12.913Z,3.58
2023-05-22T11:47:32.022Z,3.05
2023-05-22T11:51:44.775Z,3.30
2023-05-22T11:56:05.179Z,3.47
2023-05-22T12:00:19.265Z,3.55
2023-05-22T12:04:33.540Z,3.78
2023-05-22T12:08:45.897Z,3.60
2023-05-22T12:12:58.274Z,3.72
2023-05-22T12:17:16.460Z,3.40
2023-05-22T12:21:28.885Z,4.13
2023-05-22T12:25:41.214Z,3.58
2023-05-22T12:29:56.840Z,3.90
2023-05-22T12:34:09.339Z,3.80
2023-05-22T12:38:22.684Z,2.95
2023-05-22T12:42:35.071Z,3.20
2023-05-22T12:46:47.663Z,3.30
2023-05-22T12:51:00.219Z,3.35
2023-05-22T12:55:12.780Z,2.90
2023-05-22T12:59:25.136Z,2.83
2023-05-22T13:03:37.761Z,2.97
2023-05-22T13:07:50.360Z,3.00
2023-05-22T13:12:02.954Z,3.55
2023-05-22T13:16:15.515Z,3.03
2023-05-22T13:20:28.028Z,2.83
2023-05-22T13:24:40.525Z,2.45
2023-05-22T13:28:53.037Z,2.85
2023-05-22T13:33:05.478Z,3.42
2023-05-22T13:37:19.023Z,3.50
2023-05-22T13:41:31.670Z,3.70
2023-05-22T13:45:44.139Z,3.67
2023-05-22T13:49:56.627Z,3.53
2023-05-22T13:54:09.026Z,3.33
2023-05-22T13:58:23.629Z,4.72
2023-05-22T14:02:36.412Z,5.28
2023-05-22T14:06:48.926Z,5.68
2023-05-22T14:11:01.390Z,4.55
2023-05-22T14:15:16.295Z,4.35
2023-05-22T14:19:28.773Z,3.72
2023-05-22T14:23:41.977Z,4.35
2023-05-22T14:27:54.198Z,3.80
2023-05-22T14:32:07.319Z,4.15
2023-05-22T14:36:19.664Z,4.50
2023-05-22T14:40:34.308Z,4.47
2023-05-22T14:44:46.631Z,4.47
2023-05-22T14:48:59.093Z,4.60
2023-05-22T14:53:11.950Z,4.30
2023-05-22T14:57:24.291Z,4.25
2023-05-22T15:01:36.641Z,3.85
2023-05-22T15:05:49.158Z,4.03
2023-05-22T15:10:01.738Z,4.65
2023-05-22T15:14:14.170Z,3.85
2023-05-22T15:18:27.530Z,3.95
2023-05-22T15:22:40.770Z,4.72
2023-05-22T15:26:53.247Z,4.22
2023-05-22T15:31:05.788Z,4.75
2023-05-22T15:35:18.182Z,5.03
2023-05-22T15:39:30.691Z,4.03
2023-05-22T15:43:43.167Z,4.20
2023-05-22T15:47:55.875Z,5.07
2023-05-22T15:52:08.604Z,4.25
2023-05-22T15:56:21.904Z,4.32
2023-05-22T16:00:41.488Z,4.25
2023-05-22T16:04:53.996Z,4.50
2023-05-22T16:09:06.495Z,4.60
2023-05-22T16:13:19.019Z,5.13
2023-05-22T16:17:31.573Z,5.30
2023-05-22T16:21:45.030Z,4.90
2023-05-22T16:25:57.807Z,5.47
2023-05-22T16:30:11.629Z,6.18
2023-05-22T16:34:23.963Z,4.90
2023-05-22T16:38:36.637Z,5.70
2023-05-22T16:42:49.086Z,3.95
2023-05-22T16:47:01.524Z,3.80
2023-05-22T16:51:13.955Z,3.80
2023-05-22T16:55:26.404Z,4.22
2023-05-22T16:59:38.955Z,4.53
2023-05-22T17:03:54.862Z,4.80
2023-05-22T17:08:07.380Z,4.63
2023-05-22T17:12:19.877Z,4.70
2023-05-22T17:16:33.730Z,4.80
2023-05-22T17:20:50.854Z,6.45
2023-05-22T17:25:03.575Z,6.05
2023-05-22T17:29:16.245Z,5.97
2023-05-22T17:33:28.730Z,7.03
2023-05-22T17:37:41.380Z,7.00
2023-05-22T17:41:54.294Z,7.85
2023-05-22T17:46:06.904Z,7.70
2023-05-22T17:50:19.334Z,8.25
2023-05-22T17:54:35.827Z,6.35
2023-05-22T17:58:48.261Z,6.75
2023-05-22T18:03:00.966Z,5.32
2023-05-22T18:07:14.429Z,5.80
2023-05-22T18:11:26.928Z,6.72
2023-05-22T18:15:39.461Z,7.05
2023-05-22T18:19:51.905Z,6.75
2023-05-22T18:24:04.425Z,5.72
2023-05-22T18:28:17.008Z,6.32
2023-05-22T18:32:29.548Z,6.93
2023-05-22T18:36:42.501Z,7.80
2023-05-22T18:40:56.033Z,7.15
2023-05-22T18:45:09.071Z,7.28
2023-05-22T18:49:21.517Z,7.10
2023-05-22T18:53:33.945Z,7.68
2023-05-22T18:57:46.390Z,8.85
2023-05-22T19:01:58.791Z,7.78
2023-05-22T19:06:11.201Z,9.18
2023-05-22T19:10:23.703Z,9.02
2023-05-22T19:14:36.163Z,9.05
2023-05-22T19:18:48.711Z,9.05
2023-05-22T19:23:01.216Z,8.90
2023-05-22T19:27:13.635Z,8.52
2023-05-22T19:31:28.215Z,8.40
2023-05-22T19:35:41.201Z,7.95
2023-05-22T19:39:54.564Z,8.00
2023-05-22T19:44:09.076Z,8.48
2023-05-22T19:48:21.709Z,9.98
2023-05-22T19:52:35.203Z,8.80
2023-05-22T19:56:48.695Z,8.55
2023-05-22T20:01:01.223Z,11.68
2023-05-22T20:05:14.228Z,9.07
2023-05-22T20:09:27.281Z,9.50
2023-05-22T20:13:39.936Z,9.70
2023-05-22T20:17:53.870Z,9.73
2023-05-22T20:22:06.586Z,11.05
2023-05-22T20:26:20.057Z,11.05
2023-05-22T20:30:32.990Z,10.70
2023-05-22T20:34:46.796Z,9.07
2023-05-22T20:38:59.302Z,11.05
2023-05-22T20:43:14.214Z,11.18
2023-05-22T20:47:26.661Z,11.05
2023-05-22T20:51:39.683Z,11.27
2023-05-22T20:55:53.515Z,11.70
2023-05-22T21:00:09.325Z,11.23
2023-05-22T21:04:21.880Z,12.35
2023-05-22T21:08:34.318Z,12.75
2023-05-22T21:12:46.707Z,11.48
2023-05-22T21:16:59.216Z,10.02
2023-05-22T21:21:11.622Z,11.00
2023-05-22T21:25:24.030Z,10.15
2023-05-22T21:29:36.421Z,9.13
2023-05-22T21:33:48.816Z,7.75
2023-05-22T21:38:01.290Z,7.63
2023-05-22T21:42:16.365Z,8.07
2023-05-22T21:46:28.931Z,8.23
2023-05-22T21:50:41.551Z,8.20
2023-05-22T21:54:54.488Z,8.50
2023-05-22T21:59:06.977Z,7.57
2023-05-22T22:03:19.437Z,7.85
2023-05-22T22:07:31.993Z,7.07
2023-05-22T22:11:44.352Z,7.80
2023-05-22T22:15:57.647Z,7.05
2023-05-22T22:20:10.746Z,7.95
2023-05-22T22:24:23.526Z,8.70
2023-05-22T22:28:35.899Z,8.80
2023-05-22T22:32:49.093Z,9.00
2023-05-22T22:37:02.214Z,8.90
2023-05-22T22:41:14.762Z,8.43
2023-05-22T22:45:27.226Z,11.63
2023-05-22T22:49:39.720Z,14.85
2023-05-22T22:53:52.214Z,14.18
2023-05-22T22:58:04.792Z,12.52
2023-05-22T23:02:17.355Z,12.60
2023-05-22T23:06:30.076Z,14.18
2023-05-22T23:10:42.561Z,13.30
2023-05-22T23:14:55.694Z,13.18
2023-05-22T23:19:09.720Z,13.18
2023-05-22T23:23:22.289Z,12.27
2023-05-22T23:27:34.716Z,10.82
2023-05-22T23:31:47.748Z,7.90
2023-05-22T23:36:00.166Z,7.47
2023-05-22T23:40:12.983Z,7.63
2023-05-22T23:44:25.361Z,6.85
2023-05-22T23:48:37.722Z,7.15
2023-05-22T23:52:50.182Z,7.50
2023-05-22T23:57:02.562Z,6.70
